LOT321 EDDF-EDDM
Flight info
| Callsign | LOT321 |
|---|---|
| Flight time | 0h 40m |
| Altitude | 23000 |
| Route | CINDY8S/18 CINDY Z74 HAREM T104 ROKIL ROKIL1B |
| Aircraft | B738/M-SDE2E3FGHIRWXY/LB1 |
Departure
| Time | 2026-05-06 18:21 |
|---|---|
| Airport | Frankfurt Main Airport (EDDF) |
Arrival
| Time | 2026-05-06 19:01 |
|---|---|
| Airport | Munich Airport (EDDM) |
| Time | Latitude | Longitude | Altitude | Speed | Heading |
|---|---|---|---|---|---|
| 2026-05-06 17:31 | 50.04848 | 8.58903 | 361 ft | 0 kts | 340° |
| 2026-05-06 18:04 | 50.04846 | 8.58904 | 357 ft | 2 kts | 340° |
| 2026-05-06 18:04 | 50.04836 | 8.58910 | 362 ft | 1 kts | 340° |
| 2026-05-06 18:04 | 50.04827 | 8.58915 | 364 ft | 1 kts | 340° |
| 2026-05-06 18:05 | 50.04818 | 8.58920 | 363 ft | 1 kts | 340° |
| 2026-05-06 18:05 | 50.04808 | 8.58925 | 360 ft | 1 kts | 340° |
| 2026-05-06 18:05 | 50.04799 | 8.58931 | 362 ft | 1 kts | 340° |
| 2026-05-06 18:05 | 50.04790 | 8.58936 | 360 ft | 1 kts | 340° |
| 2026-05-06 18:06 | 50.04788 | 8.58937 | 359 ft | 0 kts | 340° |
| 2026-05-06 18:08 | 50.04793 | 8.58929 | 364 ft | 1 kts | 306° |
| 2026-05-06 18:08 | 50.04788 | 8.58915 | 362 ft | 3 kts | 231° |
| 2026-05-06 18:09 | 50.04759 | 8.58872 | 364 ft | 8 kts | 225° |
| 2026-05-06 18:09 | 50.04742 | 8.58787 | 360 ft | 5 kts | 281° |
| 2026-05-06 18:09 | 50.04766 | 8.58755 | 360 ft | 7 kts | 332° |
| 2026-05-06 18:09 | 50.04826 | 8.58719 | 359 ft | 12 kts | 339° |
| 2026-05-06 18:10 | 50.04883 | 8.58684 | 359 ft | 14 kts | 328° |
| 2026-05-06 18:10 | 50.04910 | 8.58606 | 357 ft | 8 kts | 267° |
| 2026-05-06 18:10 | 50.04885 | 8.58494 | 361 ft | 14 kts | 249° |
| 2026-05-06 18:10 | 50.04850 | 8.58346 | 357 ft | 15 kts | 250° |
| 2026-05-06 18:11 | 50.04815 | 8.58200 | 360 ft | 14 kts | 249° |
| 2026-05-06 18:11 | 50.04787 | 8.58080 | 363 ft | 11 kts | 250° |
| 2026-05-06 18:11 | 50.04784 | 8.58069 | 360 ft | 0 kts | 250° |
| 2026-05-06 18:12 | 50.04776 | 8.58034 | 358 ft | 8 kts | 250° |
| 2026-05-06 18:13 | 50.04743 | 8.57943 | 362 ft | 11 kts | 224° |
| 2026-05-06 18:13 | 50.04688 | 8.57820 | 362 ft | 17 kts | 249° |
| 2026-05-06 18:13 | 50.04642 | 8.57627 | 357 ft | 21 kts | 250° |
| 2026-05-06 18:13 | 50.04585 | 8.57387 | 363 ft | 26 kts | 249° |
| 2026-05-06 18:14 | 50.04523 | 8.57130 | 360 ft | 25 kts | 250° |
| 2026-05-06 18:14 | 50.04466 | 8.56889 | 359 ft | 23 kts | 250° |
| 2026-05-06 18:14 | 50.04411 | 8.56660 | 363 ft | 22 kts | 249° |
| 2026-05-06 18:14 | 50.04358 | 8.56437 | 362 ft | 21 kts | 250° |
| 2026-05-06 18:15 | 50.04344 | 8.56382 | 359 ft | 1 kts | 249° |
| 2026-05-06 18:15 | 50.04344 | 8.56381 | 359 ft | 0 kts | 249° |
| 2026-05-06 18:15 | 50.04344 | 8.56380 | 359 ft | 1 kts | 249° |
| 2026-05-06 18:15 | 50.04320 | 8.56282 | 359 ft | 17 kts | 249° |
| 2026-05-06 18:16 | 50.04262 | 8.56039 | 358 ft | 30 kts | 250° |
| 2026-05-06 18:16 | 50.04189 | 8.55730 | 361 ft | 30 kts | 249° |
| 2026-05-06 18:16 | 50.04119 | 8.55436 | 358 ft | 28 kts | 250° |
| 2026-05-06 18:16 | 50.04052 | 8.55160 | 359 ft | 26 kts | 250° |
| 2026-05-06 18:17 | 50.03992 | 8.54905 | 359 ft | 25 kts | 249° |
| 2026-05-06 18:17 | 50.03934 | 8.54665 | 361 ft | 23 kts | 250° |
| 2026-05-06 18:17 | 50.03879 | 8.54436 | 359 ft | 22 kts | 249° |
| 2026-05-06 18:17 | 50.03802 | 8.54232 | 356 ft | 22 kts | 245° |
| 2026-05-06 18:18 | 50.03751 | 8.54016 | 360 ft | 21 kts | 250° |
| 2026-05-06 18:18 | 50.03701 | 8.53805 | 359 ft | 20 kts | 250° |
| 2026-05-06 18:18 | 50.03651 | 8.53602 | 356 ft | 20 kts | 246° |
| 2026-05-06 18:18 | 50.03601 | 8.53406 | 359 ft | 19 kts | 250° |
| 2026-05-06 18:19 | 50.03555 | 8.53215 | 356 ft | 19 kts | 249° |
| 2026-05-06 18:19 | 50.03513 | 8.53037 | 360 ft | 16 kts | 249° |
| 2026-05-06 18:19 | 50.03473 | 8.52878 | 357 ft | 16 kts | 246° |
| 2026-05-06 18:19 | 50.03432 | 8.52726 | 363 ft | 15 kts | 249° |
| 2026-05-06 18:20 | 50.03401 | 8.52613 | 362 ft | 4 kts | 234° |
| 2026-05-06 18:20 | 50.03376 | 8.52595 | 363 ft | 4 kts | 189° |
| 2026-05-06 18:20 | 50.03343 | 8.52594 | 358 ft | 6 kts | 179° |
| 2026-05-06 18:20 | 50.03157 | 8.52596 | 360 ft | 62 kts | 180° |
| 2026-05-06 18:21 | 50.02465 | 8.52602 | 360 ft | 134 kts | 180° |
| 2026-05-06 18:21 | 50.01356 | 8.52616 | 542 ft | 174 kts | 183° |
| 2026-05-06 18:21 | 50.00135 | 8.52648 | 1434 ft | 172 kts | 178° |
| 2026-05-06 18:21 | 49.98938 | 8.52721 | 2286 ft | 175 kts | 183° |
| 2026-05-06 18:22 | 49.97632 | 8.52667 | 2727 ft | 203 kts | 181° |
| 2026-05-06 18:22 | 49.96234 | 8.53469 | 2974 ft | 232 kts | 139° |
| 2026-05-06 18:22 | 49.95352 | 8.55596 | 3549 ft | 238 kts | 117° |
| 2026-05-06 18:22 | 49.94598 | 8.57909 | 4158 ft | 242 kts | 119° |
| 2026-05-06 18:23 | 49.94020 | 8.60391 | 4742 ft | 252 kts | 98° |
| 2026-05-06 18:23 | 49.93899 | 8.63243 | 5020 ft | 276 kts | 94° |
| 2026-05-06 18:23 | 49.93807 | 8.66275 | 5758 ft | 284 kts | 95° |
| 2026-05-06 18:23 | 49.93341 | 8.69221 | 6636 ft | 282 kts | 121° |
| 2026-05-06 18:24 | 49.92094 | 8.71463 | 7485 ft | 279 kts | 144° |
| 2026-05-06 18:24 | 49.90510 | 8.73252 | 8304 ft | 283 kts | 148° |
| 2026-05-06 18:24 | 49.88892 | 8.75028 | 9140 ft | 287 kts | 143° |
| 2026-05-06 18:24 | 49.87639 | 8.77477 | 9945 ft | 294 kts | 121° |
| 2026-05-06 18:25 | 49.86634 | 8.80304 | 10490 ft | 308 kts | 120° |
| 2026-05-06 18:25 | 49.85563 | 8.83346 | 10677 ft | 333 kts | 120° |
| 2026-05-06 18:25 | 49.84414 | 8.86561 | 10870 ft | 355 kts | 121° |
| 2026-05-06 18:25 | 49.83187 | 8.89969 | 11338 ft | 367 kts | 121° |
| 2026-05-06 18:26 | 49.81930 | 8.93446 | 12077 ft | 370 kts | 121° |
| 2026-05-06 18:26 | 49.80666 | 8.96931 | 12875 ft | 373 kts | 121° |
| 2026-05-06 18:26 | 49.79386 | 9.00450 | 13659 ft | 377 kts | 121° |
| 2026-05-06 18:26 | 49.78093 | 9.03997 | 14364 ft | 381 kts | 121° |
| 2026-05-06 18:27 | 49.76781 | 9.07589 | 15117 ft | 384 kts | 120° |
| 2026-05-06 18:27 | 49.75730 | 9.11396 | 15843 ft | 389 kts | 106° |
| 2026-05-06 18:27 | 49.75125 | 9.15486 | 16610 ft | 392 kts | 103° |
| 2026-05-06 18:27 | 49.74232 | 9.19470 | 17253 ft | 395 kts | 122° |
| 2026-05-06 18:28 | 49.72559 | 9.22817 | 17991 ft | 395 kts | 133° |
| 2026-05-06 18:28 | 49.70712 | 9.25989 | 18638 ft | 398 kts | 134° |
| 2026-05-06 18:28 | 49.68840 | 9.29171 | 19242 ft | 401 kts | 134° |
| 2026-05-06 18:28 | 49.66965 | 9.32385 | 19839 ft | 405 kts | 133° |
| 2026-05-06 18:29 | 49.65086 | 9.35649 | 20448 ft | 408 kts | 133° |
| 2026-05-06 18:29 | 49.63204 | 9.38937 | 21032 ft | 410 kts | 133° |
| 2026-05-06 18:29 | 49.61310 | 9.42248 | 21630 ft | 413 kts | 133° |
| 2026-05-06 18:29 | 49.59410 | 9.45594 | 22204 ft | 416 kts | 133° |
| 2026-05-06 18:30 | 49.57523 | 9.48928 | 22741 ft | 418 kts | 133° |
| 2026-05-06 18:30 | 49.55590 | 9.52343 | 22795 ft | 429 kts | 133° |
| 2026-05-06 18:30 | 49.53614 | 9.55828 | 22812 ft | 433 kts | 133° |
| 2026-05-06 18:30 | 49.51632 | 9.59322 | 22796 ft | 430 kts | 133° |
| 2026-05-06 18:31 | 49.49676 | 9.62765 | 22799 ft | 426 kts | 133° |
| 2026-05-06 18:31 | 49.47720 | 9.66199 | 22807 ft | 426 kts | 133° |
| 2026-05-06 18:31 | 49.45767 | 9.69622 | 22813 ft | 427 kts | 133° |
| 2026-05-06 18:31 | 49.43807 | 9.73053 | 22805 ft | 426 kts | 133° |
| 2026-05-06 18:32 | 49.41851 | 9.76475 | 22806 ft | 426 kts | 133° |
| 2026-05-06 18:32 | 49.39894 | 9.79892 | 22806 ft | 425 kts | 134° |
| 2026-05-06 18:32 | 49.37964 | 9.83255 | 22802 ft | 424 kts | 134° |
| 2026-05-06 18:32 | 49.36008 | 9.86630 | 22803 ft | 423 kts | 134° |
| 2026-05-06 18:33 | 49.34041 | 9.89999 | 22799 ft | 423 kts | 134° |
| 2026-05-06 18:33 | 49.32079 | 9.93353 | 22801 ft | 422 kts | 134° |
| 2026-05-06 18:33 | 49.30117 | 9.96704 | 22801 ft | 421 kts | 134° |
| 2026-05-06 18:33 | 49.28162 | 10.00043 | 22803 ft | 421 kts | 134° |
| 2026-05-06 18:34 | 49.26206 | 10.03384 | 22801 ft | 420 kts | 134° |
| 2026-05-06 18:34 | 49.24254 | 10.06714 | 22814 ft | 420 kts | 134° |
| 2026-05-06 18:34 | 49.22302 | 10.10042 | 22817 ft | 420 kts | 134° |
| 2026-05-06 18:34 | 49.20351 | 10.13359 | 22815 ft | 420 kts | 134° |
| 2026-05-06 18:35 | 49.18405 | 10.16689 | 22821 ft | 420 kts | 134° |
| 2026-05-06 18:35 | 49.16469 | 10.20038 | 22837 ft | 420 kts | 134° |
| 2026-05-06 18:35 | 49.14537 | 10.23381 | 22842 ft | 420 kts | 134° |
| 2026-05-06 18:35 | 49.12582 | 10.26679 | 22843 ft | 419 kts | 135° |
| 2026-05-06 18:36 | 49.10579 | 10.29906 | 22851 ft | 418 kts | 136° |
| 2026-05-06 18:36 | 49.08569 | 10.33100 | 22848 ft | 417 kts | 136° |
| 2026-05-06 18:36 | 49.06562 | 10.36293 | 22851 ft | 417 kts | 136° |
| 2026-05-06 18:36 | 49.04561 | 10.39496 | 22845 ft | 416 kts | 136° |
| 2026-05-06 18:37 | 49.02571 | 10.42690 | 22862 ft | 416 kts | 136° |
| 2026-05-06 18:37 | 49.01253 | 10.44807 | 22854 ft | 416 kts | 136° |
| 2026-05-06 18:37 | 48.98576 | 10.49058 | 22864 ft | 415 kts | 137° |
| 2026-05-06 18:37 | 48.96573 | 10.52192 | 22847 ft | 407 kts | 137° |
| 2026-05-06 18:38 | 48.94618 | 10.55249 | 22853 ft | 400 kts | 137° |
| 2026-05-06 18:38 | 48.92720 | 10.58255 | 22862 ft | 397 kts | 136° |
| 2026-05-06 18:38 | 48.90815 | 10.61301 | 22871 ft | 398 kts | 136° |
| 2026-05-06 18:38 | 48.88903 | 10.64362 | 22548 ft | 400 kts | 136° |
| 2026-05-06 18:39 | 48.87003 | 10.67402 | 22063 ft | 394 kts | 136° |
| 2026-05-06 18:39 | 48.85128 | 10.70397 | 21552 ft | 388 kts | 136° |
| 2026-05-06 18:39 | 48.83275 | 10.73345 | 20989 ft | 384 kts | 136° |
| 2026-05-06 18:40 | 48.79615 | 10.79139 | 19890 ft | 377 kts | 137° |
| 2026-05-06 18:40 | 48.77794 | 10.81983 | 19346 ft | 374 kts | 137° |
| 2026-05-06 18:40 | 48.75984 | 10.84800 | 18812 ft | 372 kts | 137° |
| 2026-05-06 18:40 | 48.74179 | 10.87612 | 18272 ft | 371 kts | 137° |
| 2026-05-06 18:41 | 48.72385 | 10.90408 | 17673 ft | 370 kts | 137° |
| 2026-05-06 18:41 | 48.70620 | 10.93155 | 17111 ft | 368 kts | 137° |
| 2026-05-06 18:41 | 48.68832 | 10.95882 | 16899 ft | 361 kts | 139° |
| 2026-05-06 18:41 | 48.67002 | 10.98449 | 16842 ft | 358 kts | 141° |
| 2026-05-06 18:42 | 48.65175 | 11.00922 | 16819 ft | 345 kts | 141° |
| 2026-05-06 18:42 | 48.63419 | 11.03282 | 16812 ft | 329 kts | 141° |
| 2026-05-06 18:42 | 48.61747 | 11.05535 | 16814 ft | 314 kts | 141° |
| 2026-05-06 18:42 | 48.60149 | 11.07695 | 16758 ft | 302 kts | 141° |
| 2026-05-06 18:43 | 48.58614 | 11.09772 | 16506 ft | 298 kts | 141° |
| 2026-05-06 18:43 | 48.57075 | 11.11857 | 16106 ft | 298 kts | 141° |
| 2026-05-06 18:43 | 48.55521 | 11.13961 | 15607 ft | 303 kts | 142° |
| 2026-05-06 18:43 | 48.53938 | 11.16104 | 15052 ft | 308 kts | 142° |
| 2026-05-06 18:44 | 48.52322 | 11.18292 | 14686 ft | 310 kts | 142° |
| 2026-05-06 18:44 | 48.50691 | 11.20503 | 14512 ft | 327 kts | 142° |
| 2026-05-06 18:44 | 48.48906 | 11.22911 | 14296 ft | 359 kts | 142° |
| 2026-05-06 18:44 | 48.47017 | 11.25467 | 14045 ft | 366 kts | 141° |
| 2026-05-06 18:45 | 48.45119 | 11.28039 | 13802 ft | 366 kts | 142° |
| 2026-05-06 18:45 | 48.43291 | 11.30692 | 13532 ft | 367 kts | 132° |
| 2026-05-06 18:45 | 48.42074 | 11.34083 | 13275 ft | 373 kts | 111° |
| 2026-05-06 18:45 | 48.41718 | 11.36615 | 13107 ft | 376 kts | 97° |
| 2026-05-06 18:46 | 48.41937 | 11.41845 | 12796 ft | 378 kts | 85° |
| 2026-05-06 18:46 | 48.42266 | 11.45770 | 12546 ft | 378 kts | 84° |
| 2026-05-06 18:46 | 48.42613 | 11.49694 | 12302 ft | 379 kts | 84° |
| 2026-05-06 18:46 | 48.42956 | 11.53630 | 12049 ft | 378 kts | 84° |
| 2026-05-06 18:47 | 48.43287 | 11.57551 | 11804 ft | 378 kts | 85° |
| 2026-05-06 18:47 | 48.43610 | 11.61485 | 11563 ft | 378 kts | 85° |
| 2026-05-06 18:47 | 48.43923 | 11.65409 | 11321 ft | 377 kts | 85° |
| 2026-05-06 18:47 | 48.44231 | 11.69319 | 11078 ft | 375 kts | 85° |
| 2026-05-06 18:48 | 48.44532 | 11.73173 | 10840 ft | 366 kts | 85° |
| 2026-05-06 18:48 | 48.44822 | 11.76919 | 10605 ft | 355 kts | 85° |
| 2026-05-06 18:48 | 48.45104 | 11.80580 | 10379 ft | 346 kts | 85° |
| 2026-05-06 18:48 | 48.45376 | 11.84133 | 10160 ft | 338 kts | 86° |
| 2026-05-06 18:49 | 48.45642 | 11.87617 | 9948 ft | 330 kts | 86° |
| 2026-05-06 18:49 | 48.45898 | 11.91005 | 9793 ft | 321 kts | 86° |
| 2026-05-06 18:49 | 48.46146 | 11.94269 | 9789 ft | 307 kts | 86° |
| 2026-05-06 18:49 | 48.46383 | 11.97422 | 9413 ft | 301 kts | 86° |
| 2026-05-06 18:50 | 48.46613 | 12.00499 | 9173 ft | 292 kts | 86° |
| 2026-05-06 18:50 | 48.46839 | 12.03536 | 8775 ft | 295 kts | 86° |
| 2026-05-06 18:50 | 48.47065 | 12.06604 | 8257 ft | 299 kts | 85° |
| 2026-05-06 18:50 | 48.47295 | 12.09731 | 7667 ft | 301 kts | 85° |
| 2026-05-06 18:51 | 48.47505 | 12.12868 | 7098 ft | 300 kts | 91° |
| 2026-05-06 18:51 | 48.47034 | 12.15869 | 6516 ft | 294 kts | 123° |
| 2026-05-06 18:51 | 48.45642 | 12.17997 | 5973 ft | 284 kts | 157° |
| 2026-05-06 18:51 | 48.43781 | 12.18944 | 5409 ft | 284 kts | 172° |
| 2026-05-06 18:52 | 48.41827 | 12.19570 | 4937 ft | 288 kts | 174° |
| 2026-05-06 18:52 | 48.39849 | 12.20159 | 4486 ft | 291 kts | 174° |
| 2026-05-06 18:52 | 48.37850 | 12.20483 | 4064 ft | 284 kts | 193° |
| 2026-05-06 18:52 | 48.36155 | 12.19364 | 4006 ft | 256 kts | 226° |
| 2026-05-06 18:53 | 48.35300 | 12.17197 | 4000 ft | 235 kts | 259° |
| 2026-05-06 18:53 | 48.34860 | 12.14890 | 3989 ft | 232 kts | 240° |
| 2026-05-06 18:53 | 48.33593 | 12.13380 | 4012 ft | 243 kts | 204° |
| 2026-05-06 18:53 | 48.31856 | 12.13326 | 4015 ft | 264 kts | 168° |
| 2026-05-06 18:54 | 48.30291 | 12.14860 | 4014 ft | 277 kts | 132° |
| 2026-05-06 18:54 | 48.29506 | 12.17497 | 4007 ft | 283 kts | 96° |
| 2026-05-06 18:54 | 48.29779 | 12.20365 | 3999 ft | 278 kts | 60° |
| 2026-05-06 18:54 | 48.31003 | 12.22477 | 4014 ft | 266 kts | 25° |
| 2026-05-06 18:55 | 48.32721 | 12.23234 | 4029 ft | 256 kts | 358° |
| 2026-05-06 18:55 | 48.34432 | 12.23007 | 4003 ft | 247 kts | 332° |
| 2026-05-06 18:55 | 48.35701 | 12.21440 | 4012 ft | 235 kts | 300° |
| 2026-05-06 18:55 | 48.36488 | 12.19294 | 4023 ft | 234 kts | 295° |
| 2026-05-06 18:56 | 48.37238 | 12.17115 | 4025 ft | 235 kts | 294° |
| 2026-05-06 18:56 | 48.37986 | 12.14917 | 4016 ft | 236 kts | 294° |
| 2026-05-06 18:56 | 48.38459 | 12.13416 | 4004 ft | 234 kts | 287° |
| 2026-05-06 18:56 | 48.38647 | 12.11060 | 4015 ft | 220 kts | 271° |
| 2026-05-06 18:57 | 48.38659 | 12.08830 | 4000 ft | 207 kts | 270° |
| 2026-05-06 18:57 | 48.38590 | 12.06759 | 4007 ft | 194 kts | 267° |
| 2026-05-06 18:57 | 48.38457 | 12.04782 | 4015 ft | 189 kts | 265° |
| 2026-05-06 18:57 | 48.38306 | 12.02826 | 4039 ft | 188 kts | 264° |
| 2026-05-06 18:58 | 48.38153 | 12.00895 | 3935 ft | 182 kts | 265° |
| 2026-05-06 18:58 | 48.38006 | 11.99044 | 3742 ft | 175 kts | 265° |
| 2026-05-06 18:58 | 48.37866 | 11.97253 | 3531 ft | 169 kts | 265° |
| 2026-05-06 18:58 | 48.37729 | 11.95514 | 3301 ft | 164 kts | 266° |
| 2026-05-06 18:59 | 48.37598 | 11.93836 | 3080 ft | 159 kts | 265° |
| 2026-05-06 18:59 | 48.37473 | 11.92239 | 2874 ft | 147 kts | 265° |
| 2026-05-06 18:59 | 48.37358 | 11.90748 | 2688 ft | 139 kts | 264° |
| 2026-05-06 18:59 | 48.37248 | 11.89342 | 2492 ft | 134 kts | 264° |
| 2026-05-06 19:00 | 48.37141 | 11.87952 | 2289 ft | 137 kts | 262° |
| 2026-05-06 19:00 | 48.37030 | 11.86528 | 2130 ft | 134 kts | 262° |
| 2026-05-06 19:00 | 48.36923 | 11.85150 | 1915 ft | 131 kts | 261° |
| 2026-05-06 19:00 | 48.36815 | 11.83759 | 1720 ft | 135 kts | 263° |
| 2026-05-06 19:01 | 48.36708 | 11.82381 | 1580 ft | 130 kts | 262° |
| 2026-05-06 19:01 | 48.36606 | 11.81075 | 1485 ft | 107 kts | 264° |
| 2026-05-06 19:01 | 48.36546 | 11.80288 | 1484 ft | 45 kts | 264° |
| 2026-05-06 19:01 | 48.36526 | 11.80011 | 1481 ft | 23 kts | 264° |
| 2026-05-06 19:02 | 48.36481 | 11.79789 | 1483 ft | 22 kts | 243° |
| 2026-05-06 19:02 | 48.36399 | 11.79601 | 1481 ft | 21 kts | 233° |
| 2026-05-06 19:02 | 48.36323 | 11.79445 | 1479 ft | 14 kts | 234° |
| 2026-05-06 19:02 | 48.36270 | 11.79336 | 1475 ft | 0 kts | 234° |
| 2026-05-06 19:03 | 48.36269 | 11.79332 | 1476 ft | 4 kts | 234° |
| 2026-05-06 19:03 | 48.36216 | 11.79273 | 1477 ft | 9 kts | 185° |
| 2026-05-06 19:03 | 48.36137 | 11.79313 | 1475 ft | 18 kts | 165° |
| 2026-05-06 19:04 | 48.36055 | 11.79324 | 1484 ft | 13 kts | 175° |
| 2026-05-06 19:04 | 48.36011 | 11.79330 | 1478 ft | 4 kts | 174° |
| 2026-05-06 19:04 | 48.35987 | 11.79334 | 1485 ft | 3 kts | 174° |
| 2026-05-06 19:04 | 48.35977 | 11.79336 | 1485 ft | 1 kts | 174° |
| 2026-05-06 19:05 | 48.35968 | 11.79337 | 1480 ft | 1 kts | 174° |
| 2026-05-06 19:05 | 48.35960 | 11.79338 | 1479 ft | 1 kts | 174° |
| 2026-05-06 19:05 | 48.35953 | 11.79340 | 1481 ft | 1 kts | 174° |
| 2026-05-06 19:05 | 48.35940 | 11.79345 | 1484 ft | 4 kts | 161° |
| 2026-05-06 19:06 | 48.35876 | 11.79376 | 1483 ft | 14 kts | 167° |
| 2026-05-06 19:06 | 48.35793 | 11.79438 | 1481 ft | 6 kts | 108° |
| 2026-05-06 19:06 | 48.35792 | 11.79509 | 1484 ft | 7 kts | 85° |
| 2026-05-06 19:06 | 48.35797 | 11.79583 | 1482 ft | 7 kts | 84° |
| 2026-05-06 19:07 | 48.35802 | 11.79654 | 1475 ft | 7 kts | 81° |
| 2026-05-06 19:07 | 48.35808 | 11.79731 | 1470 ft | 9 kts | 83° |
| 2026-05-06 19:07 | 48.35820 | 11.79874 | 1480 ft | 19 kts | 84° |
| 2026-05-06 19:07 | 48.35818 | 11.80029 | 1474 ft | 11 kts | 133° |
| 2026-05-06 19:08 | 48.35749 | 11.80073 | 1479 ft | 11 kts | 172° |
| 2026-05-06 19:08 | 48.35691 | 11.80085 | 1483 ft | 7 kts | 168° |
| 2026-05-06 19:08 | 48.35645 | 11.80101 | 1482 ft | 7 kts | 174° |
| 2026-05-06 19:08 | 48.35599 | 11.80107 | 1484 ft | 7 kts | 174° |
| 2026-05-06 19:09 | 48.35574 | 11.80110 | 1474 ft | 1 kts | 184° |
| 2026-05-06 19:09 | 48.35559 | 11.80097 | 1483 ft | 1 kts | 233° |
| 2026-05-06 19:09 | 48.35556 | 11.80079 | 1475 ft | 2 kts | 257° |
| 2026-05-06 19:09 | 48.35553 | 11.80051 | 1481 ft | 4 kts | 263° |
| 2026-05-06 19:10 | 48.35549 | 11.80002 | 1484 ft | 1 kts | 263° |
| 2026-05-06 19:10 | 48.35549 | 11.79997 | 1484 ft | 0 kts | 263° |